sensor_id;sensor_type;location;lat;lon;timestamp;P1;durP1;ratioP1;P2;durP2;ratioP2
72771;SDS011;60894;42.544;1.516;2024-02-15T00:00:51;5.20;;;1.70;;
72771;SDS011;60894;42.544;1.516;2024-02-15T00:03:20;6.35;;;1.63;;
72771;SDS011;60894;42.544;1.516;2024-02-15T00:05:47;7.20;;;1.70;;
72771;SDS011;60894;42.544;1.516;2024-02-15T00:08:14;5.90;;;1.70;;
72771;SDS011;60894;42.544;1.516;2024-02-15T00:10:41;5.18;;;2.00;;
72771;SDS011;60894;42.544;1.516;2024-02-15T00:13:11;4.88;;;1.58;;
72771;SDS011;60894;42.544;1.516;2024-02-15T00:15:39;4.82;;;1.60;;
72771;SDS011;60894;42.544;1.516;2024-02-15T00:18:06;5.65;;;2.03;;
72771;SDS011;60894;42.544;1.516;2024-02-15T00:20:35;7.20;;;1.90;;
72771;SDS011;60894;42.544;1.516;2024-02-15T00:23:02;6.43;;;2.22;;
72771;SDS011;60894;42.544;1.516;2024-02-15T00:25:29;6.13;;;1.98;;
72771;SDS011;60894;42.544;1.516;2024-02-15T00:27:57;5.95;;;1.52;;
72771;SDS011;60894;42.544;1.516;2024-02-15T00:30:25;5.90;;;2.20;;
72771;SDS011;60894;42.544;1.516;2024-02-15T00:32:53;5.13;;;1.73;;
72771;SDS011;60894;42.544;1.516;2024-02-15T00:35:20;4.18;;;1.40;;
72771;SDS011;60894;42.544;1.516;2024-02-15T00:37:48;5.68;;;1.25;;
72771;SDS011;60894;42.544;1.516;2024-02-15T00:40:16;2.85;;;0.95;;
72771;SDS011;60894;42.544;1.516;2024-02-15T00:42:43;3.55;;;1.20;;
72771;SDS011;60894;42.544;1.516;2024-02-15T00:45:10;5.23;;;1.30;;
72771;SDS011;60894;42.544;1.516;2024-02-15T00:47:37;4.95;;;1.50;;
72771;SDS011;60894;42.544;1.516;2024-02-15T00:50:07;4.35;;;1.48;;
72771;SDS011;60894;42.544;1.516;2024-02-15T00:52:35;3.92;;;1.00;;
72771;SDS011;60894;42.544;1.516;2024-02-15T00:55:04;2.63;;;0.88;;
72771;SDS011;60894;42.544;1.516;2024-02-15T00:57:31;3.00;;;0.90;;
72771;SDS011;60894;42.544;1.516;2024-02-15T00:59:58;3.22;;;0.98;;
72771;SDS011;60894;42.544;1.516;2024-02-15T01:02:27;4.68;;;1.45;;
72771;SDS011;60894;42.544;1.516;2024-02-15T01:04:54;4.63;;;1.42;;
72771;SDS011;60894;42.544;1.516;2024-02-15T01:07:24;2.47;;;0.88;;
72771;SDS011;60894;42.544;1.516;2024-02-15T01:09:53;3.03;;;1.10;;
72771;SDS011;60894;42.544;1.516;2024-02-15T01:12:22;4.63;;;1.40;;
72771;SDS011;60894;42.544;1.516;2024-02-15T01:14:49;3.17;;;0.90;;
72771;SDS011;60894;42.544;1.516;2024-02-15T01:17:16;2.45;;;1.00;;
72771;SDS011;60894;42.544;1.516;2024-02-15T01:19:43;2.90;;;1.20;;
72771;SDS011;60894;42.544;1.516;2024-02-15T01:22:10;2.47;;;0.90;;
72771;SDS011;60894;42.544;1.516;2024-02-15T01:24:38;3.40;;;1.25;;
72771;SDS011;60894;42.544;1.516;2024-02-15T01:27:05;3.75;;;1.00;;
72771;SDS011;60894;42.544;1.516;2024-02-15T01:29:34;3.50;;;1.13;;
72771;SDS011;60894;42.544;1.516;2024-02-15T01:32:01;1.58;;;0.82;;
72771;SDS011;60894;42.544;1.516;2024-02-15T01:34:30;2.20;;;0.97;;
72771;SDS011;60894;42.544;1.516;2024-02-15T01:36:57;2.30;;;0.90;;
72771;SDS011;60894;42.544;1.516;2024-02-15T01:39:24;3.55;;;1.20;;
72771;SDS011;60894;42.544;1.516;2024-02-15T01:41:52;1.95;;;0.82;;
72771;SDS011;60894;42.544;1.516;2024-02-15T01:44:21;4.50;;;0.82;;
72771;SDS011;60894;42.544;1.516;2024-02-15T01:46:51;3.57;;;0.97;;
72771;SDS011;60894;42.544;1.516;2024-02-15T01:49:19;2.47;;;1.00;;
72771;SDS011;60894;42.544;1.516;2024-02-15T01:51:48;5.70;;;1.20;;
72771;SDS011;60894;42.544;1.516;2024-02-15T01:54:17;2.65;;;0.90;;
72771;SDS011;60894;42.544;1.516;2024-02-15T01:56:46;2.97;;;0.93;;
72771;SDS011;60894;42.544;1.516;2024-02-15T01:59:14;2.37;;;0.80;;
72771;SDS011;60894;42.544;1.516;2024-02-15T02:01:42;2.92;;;0.90;;
72771;SDS011;60894;42.544;1.516;2024-02-15T02:04:12;6.20;;;1.38;;
72771;SDS011;60894;42.544;1.516;2024-02-15T02:06:39;3.00;;;0.82;;
72771;SDS011;60894;42.544;1.516;2024-02-15T02:09:08;6.80;;;0.98;;
72771;SDS011;60894;42.544;1.516;2024-02-15T02:11:39;2.50;;;1.00;;
72771;SDS011;60894;42.544;1.516;2024-02-15T02:14:07;1.63;;;0.70;;
72771;SDS011;60894;42.544;1.516;2024-02-15T02:16:35;3.42;;;0.82;;
72771;SDS011;60894;42.544;1.516;2024-02-15T02:19:02;2.65;;;0.77;;
72771;SDS011;60894;42.544;1.516;2024-02-15T02:21:34;1.98;;;0.80;;
72771;SDS011;60894;42.544;1.516;2024-02-15T02:24:07;3.97;;;1.00;;
72771;SDS011;60894;42.544;1.516;2024-02-15T02:26:40;3.33;;;0.90;;
72771;SDS011;60894;42.544;1.516;2024-02-15T02:29:08;2.25;;;0.80;;
72771;SDS011;60894;42.544;1.516;2024-02-15T02:31:36;2.58;;;0.88;;
72771;SDS011;60894;42.544;1.516;2024-02-15T02:34:03;3.80;;;1.10;;
72771;SDS011;60894;42.544;1.516;2024-02-15T02:36:32;3.00;;;1.00;;
72771;SDS011;60894;42.544;1.516;2024-02-15T02:38:59;3.92;;;1.17;;
72771;SDS011;60894;42.544;1.516;2024-02-15T02:41:26;1.92;;;0.70;;
72771;SDS011;60894;42.544;1.516;2024-02-15T02:43:56;4.57;;;0.98;;
72771;SDS011;60894;42.544;1.516;2024-02-15T02:46:23;3.25;;;1.00;;
72771;SDS011;60894;42.544;1.516;2024-02-15T02:48:51;2.77;;;0.80;;
72771;SDS011;60894;42.544;1.516;2024-02-15T02:51:18;3.22;;;1.00;;
72771;SDS011;60894;42.544;1.516;2024-02-15T02:53:45;2.25;;;0.77;;
72771;SDS011;60894;42.544;1.516;2024-02-15T02:56:12;2.58;;;0.98;;
72771;SDS011;60894;42.544;1.516;2024-02-15T02:58:39;2.33;;;0.85;;
72771;SDS011;60894;42.544;1.516;2024-02-15T03:01:09;1.67;;;0.53;;
72771;SDS011;60894;42.544;1.516;2024-02-15T03:03:36;3.15;;;0.70;;
72771;SDS011;60894;42.544;1.516;2024-02-15T03:06:05;2.83;;;0.90;;
72771;SDS011;60894;42.544;1.516;2024-02-15T03:08:32;1.38;;;0.40;;
72771;SDS011;60894;42.544;1.516;2024-02-15T03:10:59;1.27;;;0.60;;
72771;SDS011;60894;42.544;1.516;2024-02-15T03:13:26;1.90;;;0.57;;
72771;SDS011;60894;42.544;1.516;2024-02-15T03:15:54;1.80;;;0.60;;
72771;SDS011;60894;42.544;1.516;2024-02-15T03:18:22;1.77;;;0.45;;
72771;SDS011;60894;42.544;1.516;2024-02-15T03:20:49;1.92;;;0.73;;
72771;SDS011;60894;42.544;1.516;2024-02-15T03:23:16;1.40;;;0.70;;
72771;SDS011;60894;42.544;1.516;2024-02-15T03:25:43;2.43;;;0.90;;
72771;SDS011;60894;42.544;1.516;2024-02-15T03:28:10;1.75;;;0.60;;
72771;SDS011;60894;42.544;1.516;2024-02-15T03:30:37;2.75;;;0.95;;
72771;SDS011;60894;42.544;1.516;2024-02-15T03:33:05;1.80;;;0.70;;
72771;SDS011;60894;42.544;1.516;2024-02-15T03:35:33;2.40;;;0.70;;
72771;SDS011;60894;42.544;1.516;2024-02-15T03:38:01;2.27;;;0.90;;
72771;SDS011;60894;42.544;1.516;2024-02-15T03:40:28;2.40;;;0.70;;
72771;SDS011;60894;42.544;1.516;2024-02-15T03:42:56;4.40;;;0.90;;
72771;SDS011;60894;42.544;1.516;2024-02-15T03:45:23;2.70;;;0.70;;
72771;SDS011;60894;42.544;1.516;2024-02-15T03:47:50;1.95;;;0.57;;
72771;SDS011;60894;42.544;1.516;2024-02-15T03:50:18;1.90;;;0.50;;
72771;SDS011;60894;42.544;1.516;2024-02-15T03:52:48;1.42;;;0.50;;
72771;SDS011;60894;42.544;1.516;2024-02-15T03:55:16;1.33;;;0.50;;
72771;SDS011;60894;42.544;1.516;2024-02-15T03:57:43;1.27;;;0.60;;
72771;SDS011;60894;42.544;1.516;2024-02-15T04:00:11;2.03;;;0.60;;
72771;SDS011;60894;42.544;1.516;2024-02-15T04:02:39;0.90;;;0.60;;
72771;SDS011;60894;42.544;1.516;2024-02-15T04:05:07;2.15;;;0.68;;
72771;SDS011;60894;42.544;1.516;2024-02-15T04:07:34;1.67;;;0.70;;
72771;SDS011;60894;42.544;1.516;2024-02-15T04:10:05;2.08;;;0.80;;
72771;SDS011;60894;42.544;1.516;2024-02-15T04:12:33;0.88;;;0.47;;
72771;SDS011;60894;42.544;1.516;2024-02-15T04:15:00;2.10;;;0.70;;
72771;SDS011;60894;42.544;1.516;2024-02-15T04:17:31;2.08;;;0.63;;
72771;SDS011;60894;42.544;1.516;2024-02-15T04:20:00;1.92;;;0.60;;
72771;SDS011;60894;42.544;1.516;2024-02-15T04:22:29;1.30;;;0.43;;
72771;SDS011;60894;42.544;1.516;2024-02-15T04:25:05;3.38;;;0.80;;
72771;SDS011;60894;42.544;1.516;2024-02-15T04:27:35;1.43;;;0.60;;
72771;SDS011;60894;42.544;1.516;2024-02-15T04:30:02;1.63;;;0.57;;
72771;SDS011;60894;42.544;1.516;2024-02-15T04:32:29;2.08;;;0.52;;
72771;SDS011;60894;42.544;1.516;2024-02-15T04:34:59;4.90;;;0.50;;
72771;SDS011;60894;42.544;1.516;2024-02-15T04:37:26;2.97;;;0.82;;
72771;SDS011;60894;42.544;1.516;2024-02-15T04:39:57;2.83;;;0.60;;
72771;SDS011;60894;42.544;1.516;2024-02-15T04:42:33;2.05;;;0.50;;
72771;SDS011;60894;42.544;1.516;2024-02-15T04:45:02;1.00;;;0.47;;
72771;SDS011;60894;42.544;1.516;2024-02-15T04:47:30;3.75;;;0.60;;
72771;SDS011;60894;42.544;1.516;2024-02-15T04:49:58;1.58;;;0.57;;
72771;SDS011;60894;42.544;1.516;2024-02-15T04:52:25;1.33;;;0.60;;
72771;SDS011;60894;42.544;1.516;2024-02-15T04:54:52;1.98;;;0.50;;
72771;SDS011;60894;42.544;1.516;2024-02-15T04:57:20;3.22;;;0.60;;
72771;SDS011;60894;42.544;1.516;2024-02-15T04:59:48;2.45;;;0.60;;
72771;SDS011;60894;42.544;1.516;2024-02-15T05:02:15;1.65;;;0.60;;
72771;SDS011;60894;42.544;1.516;2024-02-15T05:04:45;1.83;;;0.60;;
72771;SDS011;60894;42.544;1.516;2024-02-15T05:07:12;2.47;;;0.60;;
72771;SDS011;60894;42.544;1.516;2024-02-15T05:09:42;3.30;;;0.65;;
72771;SDS011;60894;42.544;1.516;2024-02-15T05:12:09;1.42;;;0.50;;
72771;SDS011;60894;42.544;1.516;2024-02-15T05:14:36;2.47;;;0.57;;
72771;SDS011;60894;42.544;1.516;2024-02-15T05:17:05;1.97;;;0.60;;
72771;SDS011;60894;42.544;1.516;2024-02-15T05:19:35;1.63;;;0.60;;
72771;SDS011;60894;42.544;1.516;2024-02-15T05:22:02;2.53;;;0.90;;
72771;SDS011;60894;42.544;1.516;2024-02-15T05:24:31;1.13;;;0.50;;
72771;SDS011;60894;42.544;1.516;2024-02-15T05:26:58;3.70;;;0.82;;
72771;SDS011;60894;42.544;1.516;2024-02-15T05:29:26;3.73;;;1.20;;
72771;SDS011;60894;42.544;1.516;2024-02-15T05:31:53;2.92;;;1.08;;
72771;SDS011;60894;42.544;1.516;2024-02-15T05:34:23;4.03;;;1.30;;
72771;SDS011;60894;42.544;1.516;2024-02-15T05:36:50;2.05;;;0.93;;
72771;SDS011;60894;42.544;1.516;2024-02-15T05:39:17;4.32;;;0.90;;
72771;SDS011;60894;42.544;1.516;2024-02-15T05:41:47;1.83;;;0.70;;
72771;SDS011;60894;42.544;1.516;2024-02-15T05:44:16;3.28;;;0.82;;
72771;SDS011;60894;42.544;1.516;2024-02-15T05:46:46;2.95;;;0.80;;
72771;SDS011;60894;42.544;1.516;2024-02-15T05:49:13;6.05;;;1.00;;
72771;SDS011;60894;42.544;1.516;2024-02-15T05:51:44;6.68;;;1.83;;
72771;SDS011;60894;42.544;1.516;2024-02-15T05:54:12;2.27;;;0.97;;
72771;SDS011;60894;42.544;1.516;2024-02-15T05:56:39;4.10;;;1.23;;
72771;SDS011;60894;42.544;1.516;2024-02-15T05:59:08;1.70;;;1.00;;
72771;SDS011;60894;42.544;1.516;2024-02-15T06:01:36;1.85;;;0.75;;
72771;SDS011;60894;42.544;1.516;2024-02-15T06:04:04;5.20;;;0.80;;
72771;SDS011;60894;42.544;1.516;2024-02-15T06:06:33;3.23;;;0.87;;
72771;SDS011;60894;42.544;1.516;2024-02-15T06:09:02;1.35;;;0.70;;
72771;SDS011;60894;42.544;1.516;2024-02-15T06:11:30;3.75;;;0.90;;
72771;SDS011;60894;42.544;1.516;2024-02-15T06:13:57;4.10;;;1.00;;
72771;SDS011;60894;42.544;1.516;2024-02-15T06:16:24;2.97;;;0.95;;
72771;SDS011;60894;42.544;1.516;2024-02-15T06:18:51;6.47;;;1.00;;
72771;SDS011;60894;42.544;1.516;2024-02-15T06:21:18;4.07;;;1.20;;
72771;SDS011;60894;42.544;1.516;2024-02-15T06:23:46;3.40;;;1.00;;
72771;SDS011;60894;42.544;1.516;2024-02-15T06:26:15;5.13;;;1.20;;
72771;SDS011;60894;42.544;1.516;2024-02-15T06:28:42;3.17;;;0.98;;
72771;SDS011;60894;42.544;1.516;2024-02-15T06:31:26;2.33;;;0.90;;
72771;SDS011;60894;42.544;1.516;2024-02-15T06:34:25;3.45;;;1.02;;
72771;SDS011;60894;42.544;1.516;2024-02-15T06:37:10;3.20;;;1.00;;
72771;SDS011;60894;42.544;1.516;2024-02-15T06:39:54;6.55;;;1.40;;
72771;SDS011;60894;42.544;1.516;2024-02-15T06:42:22;5.40;;;2.00;;
72771;SDS011;60894;42.544;1.516;2024-02-15T06:44:52;1.83;;;1.30;;
72771;SDS011;60894;42.544;1.516;2024-02-15T06:47:19;3.53;;;1.15;;
72771;SDS011;60894;42.544;1.516;2024-02-15T06:49:47;4.75;;;1.20;;
72771;SDS011;60894;42.544;1.516;2024-02-15T06:52:17;6.28;;;1.20;;
72771;SDS011;60894;42.544;1.516;2024-02-15T06:54:44;6.68;;;1.30;;
72771;SDS011;60894;42.544;1.516;2024-02-15T06:57:11;5.17;;;1.60;;
72771;SDS011;60894;42.544;1.516;2024-02-15T06:59:39;3.97;;;1.30;;
72771;SDS011;60894;42.544;1.516;2024-02-15T07:02:07;5.10;;;1.30;;
72771;SDS011;60894;42.544;1.516;2024-02-15T07:04:34;5.72;;;1.95;;
72771;SDS011;60894;42.544;1.516;2024-02-15T07:07:02;4.10;;;1.80;;
72771;SDS011;60894;42.544;1.516;2024-02-15T07:09:29;2.57;;;1.20;;
72771;SDS011;60894;42.544;1.516;2024-02-15T07:11:56;3.13;;;1.30;;
72771;SDS011;60894;42.544;1.516;2024-02-15T07:14:24;6.88;;;2.50;;
72771;SDS011;60894;42.544;1.516;2024-02-15T07:16:54;12.75;;;4.68;;
72771;SDS011;60894;42.544;1.516;2024-02-15T07:19:23;7.90;;;1.80;;
72771;SDS011;60894;42.544;1.516;2024-02-15T07:21:51;6.03;;;1.70;;
72771;SDS011;60894;42.544;1.516;2024-02-15T07:24:18;5.32;;;2.05;;
72771;SDS011;60894;42.544;1.516;2024-02-15T07:26:45;2.97;;;1.40;;
72771;SDS011;60894;42.544;1.516;2024-02-15T07:29:12;6.68;;;2.25;;
72771;SDS011;60894;42.544;1.516;2024-02-15T07:31:40;7.38;;;2.50;;
72771;SDS011;60894;42.544;1.516;2024-02-15T07:34:09;12.07;;;4.40;;
72771;SDS011;60894;42.544;1.516;2024-02-15T07:36:37;8.60;;;4.00;;
72771;SDS011;60894;42.544;1.516;2024-02-15T07:39:07;8.00;;;2.70;;
72771;SDS011;60894;42.544;1.516;2024-02-15T07:41:37;7.00;;;2.88;;
72771;SDS011;60894;42.544;1.516;2024-02-15T07:44:05;9.80;;;3.08;;
72771;SDS011;60894;42.544;1.516;2024-02-15T07:46:33;8.47;;;3.27;;
72771;SDS011;60894;42.544;1.516;2024-02-15T07:49:00;7.38;;;3.00;;
72771;SDS011;60894;42.544;1.516;2024-02-15T07:51:29;11.02;;;5.30;;
72771;SDS011;60894;42.544;1.516;2024-02-15T07:53:56;11.77;;;4.07;;
72771;SDS011;60894;42.544;1.516;2024-02-15T07:56:23;9.77;;;4.90;;
72771;SDS011;60894;42.544;1.516;2024-02-15T07:58:50;17.40;;;8.53;;
72771;SDS011;60894;42.544;1.516;2024-02-15T08:01:17;11.73;;;6.43;;
72771;SDS011;60894;42.544;1.516;2024-02-15T08:03:46;11.10;;;5.68;;
72771;SDS011;60894;42.544;1.516;2024-02-15T08:06:13;11.10;;;4.47;;
72771;SDS011;60894;42.544;1.516;2024-02-15T08:08:43;10.75;;;4.57;;
72771;SDS011;60894;42.544;1.516;2024-02-15T08:11:11;9.33;;;3.97;;
72771;SDS011;60894;42.544;1.516;2024-02-15T08:13:43;13.63;;;4.00;;
72771;SDS011;60894;42.544;1.516;2024-02-15T08:16:11;8.25;;;3.00;;
72771;SDS011;60894;42.544;1.516;2024-02-15T08:18:41;8.00;;;3.45;;
72771;SDS011;60894;42.544;1.516;2024-02-15T08:21:09;7.75;;;3.55;;
72771;SDS011;60894;42.544;1.516;2024-02-15T08:23:37;11.73;;;4.77;;
72771;SDS011;60894;42.544;1.516;2024-02-15T08:26:05;10.25;;;4.10;;
72771;SDS011;60894;42.544;1.516;2024-02-15T08:28:32;10.45;;;3.60;;
72771;SDS011;60894;42.544;1.516;2024-02-15T08:30:59;9.13;;;3.47;;
72771;SDS011;60894;42.544;1.516;2024-02-15T08:33:26;8.32;;;3.67;;
72771;SDS011;60894;42.544;1.516;2024-02-15T09:06:49;9.65;;;2.90;;
72771;SDS011;60894;42.544;1.516;2024-02-15T09:09:17;7.15;;;2.47;;
72771;SDS011;60894;42.544;1.516;2024-02-15T09:11:44;8.43;;;3.30;;
72771;SDS011;60894;42.544;1.516;2024-02-15T09:14:11;8.32;;;3.80;;
72771;SDS011;60894;42.544;1.516;2024-02-15T09:16:38;9.67;;;3.13;;
72771;SDS011;60894;42.544;1.516;2024-02-15T09:19:06;9.93;;;3.47;;
72771;SDS011;60894;42.544;1.516;2024-02-15T09:21:33;9.90;;;3.17;;
72771;SDS011;60894;42.544;1.516;2024-02-15T09:24:01;9.45;;;3.20;;
72771;SDS011;60894;42.544;1.516;2024-02-15T09:26:29;9.05;;;3.30;;
72771;SDS011;60894;42.544;1.516;2024-02-15T09:28:57;9.87;;;3.60;;
72771;SDS011;60894;42.544;1.516;2024-02-15T09:31:23;10.68;;;3.33;;
72771;SDS011;60894;42.544;1.516;2024-02-15T09:33:51;7.03;;;3.03;;
72771;SDS011;60894;42.544;1.516;2024-02-15T09:36:18;8.32;;;3.10;;
72771;SDS011;60894;42.544;1.516;2024-02-15T09:38:45;6.03;;;2.70;;
72771;SDS011;60894;42.544;1.516;2024-02-15T09:41:15;3.27;;;1.80;;
72771;SDS011;60894;42.544;1.516;2024-02-15T09:43:42;4.93;;;1.48;;
72771;SDS011;60894;42.544;1.516;2024-02-15T09:46:09;3.50;;;1.50;;
72771;SDS011;60894;42.544;1.516;2024-02-15T09:48:37;5.47;;;1.45;;
72771;SDS011;60894;42.544;1.516;2024-02-15T09:51:08;6.78;;;1.88;;
72771;SDS011;60894;42.544;1.516;2024-02-15T09:53:37;4.17;;;1.60;;
72771;SDS011;60894;42.544;1.516;2024-02-15T09:56:05;3.45;;;1.40;;
72771;SDS011;60894;42.544;1.516;2024-02-15T09:58:34;3.08;;;1.40;;
72771;SDS011;60894;42.544;1.516;2024-02-15T10:01:03;3.53;;;1.30;;
72771;SDS011;60894;42.544;1.516;2024-02-15T10:03:34;4.47;;;1.52;;
72771;SDS011;60894;42.544;1.516;2024-02-15T10:06:05;5.47;;;1.70;;
72771;SDS011;60894;42.544;1.516;2024-02-15T10:08:32;3.45;;;1.40;;
72771;SDS011;60894;42.544;1.516;2024-02-15T10:11:05;5.88;;;1.50;;
72771;SDS011;60894;42.544;1.516;2024-02-15T10:13:35;2.58;;;1.30;;
72771;SDS011;60894;42.544;1.516;2024-02-15T10:18:50;5.37;;;1.67;;
72771;SDS011;60894;42.544;1.516;2024-02-15T10:21:24;5.10;;;1.60;;
72771;SDS011;60894;42.544;1.516;2024-02-15T10:24:04;7.00;;;1.40;;
72771;SDS011;60894;42.544;1.516;2024-02-15T10:26:31;6.15;;;2.20;;
72771;SDS011;60894;42.544;1.516;2024-02-15T10:29:08;3.95;;;1.60;;
72771;SDS011;60894;42.544;1.516;2024-02-15T10:31:36;4.67;;;1.60;;
72771;SDS011;60894;42.544;1.516;2024-02-15T10:34:05;5.97;;;1.90;;
72771;SDS011;60894;42.544;1.516;2024-02-15T10:36:33;7.68;;;2.50;;
72771;SDS011;60894;42.544;1.516;2024-02-15T10:39:10;8.82;;;3.17;;
72771;SDS011;60894;42.544;1.516;2024-02-15T10:41:46;10.60;;;3.40;;
72771;SDS011;60894;42.544;1.516;2024-02-15T10:44:16;10.20;;;3.70;;
72771;SDS011;60894;42.544;1.516;2024-02-15T10:46:45;11.38;;;3.67;;
72771;SDS011;60894;42.544;1.516;2024-02-15T10:49:17;12.23;;;4.40;;
72771;SDS011;60894;42.544;1.516;2024-02-15T10:51:48;11.60;;;3.60;;
72771;SDS011;60894;42.544;1.516;2024-02-15T10:54:22;14.73;;;3.63;;
72771;SDS011;60894;42.544;1.516;2024-02-15T10:57:03;10.67;;;3.13;;
72771;SDS011;60894;42.544;1.516;2024-02-15T10:59:34;11.13;;;3.20;;
72771;SDS011;60894;42.544;1.516;2024-02-15T11:02:05;11.98;;;4.20;;
72771;SDS011;60894;42.544;1.516;2024-02-15T11:04:49;9.70;;;3.47;;
72771;SDS011;60894;42.544;1.516;2024-02-15T11:07:20;8.07;;;3.50;;
72771;SDS011;60894;42.544;1.516;2024-02-15T11:09:48;18.23;;;3.87;;
72771;SDS011;60894;42.544;1.516;2024-02-15T11:12:16;8.98;;;3.45;;
72771;SDS011;60894;42.544;1.516;2024-02-15T11:14:47;8.57;;;2.90;;
72771;SDS011;60894;42.544;1.516;2024-02-15T11:23:25;9.37;;;2.70;;
72771;SDS011;60894;42.544;1.516;2024-02-15T11:25:53;7.60;;;2.83;;
72771;SDS011;60894;42.544;1.516;2024-02-15T20:56:16;11.48;;;4.35;;
72771;SDS011;60894;42.544;1.516;2024-02-15T20:58:44;11.63;;;4.60;;
72771;SDS011;60894;42.544;1.516;2024-02-15T21:01:12;11.23;;;4.10;;
72771;SDS011;60894;42.544;1.516;2024-02-15T21:03:40;10.93;;;3.97;;
72771;SDS011;60894;42.544;1.516;2024-02-15T21:06:12;8.77;;;3.60;;
72771;SDS011;60894;42.544;1.516;2024-02-15T21:08:41;9.32;;;3.80;;
72771;SDS011;60894;42.544;1.516;2024-02-15T21:11:10;11.20;;;4.10;;
72771;SDS011;60894;42.544;1.516;2024-02-15T21:13:37;13.43;;;4.47;;
72771;SDS011;60894;42.544;1.516;2024-02-15T21:16:07;13.80;;;4.47;;
72771;SDS011;60894;42.544;1.516;2024-02-15T21:18:34;9.52;;;4.25;;
72771;SDS011;60894;42.544;1.516;2024-02-15T21:21:01;11.15;;;4.40;;
72771;SDS011;60894;42.544;1.516;2024-02-15T21:23:30;12.75;;;4.18;;
72771;SDS011;60894;42.544;1.516;2024-02-15T21:25:59;8.50;;;3.75;;
72771;SDS011;60894;42.544;1.516;2024-02-15T21:28:28;10.27;;;3.80;;
72771;SDS011;60894;42.544;1.516;2024-02-15T21:30:55;9.43;;;3.08;;
72771;SDS011;60894;42.544;1.516;2024-02-15T21:33:22;8.60;;;2.97;;
72771;SDS011;60894;42.544;1.516;2024-02-15T21:35:49;11.20;;;3.63;;
72771;SDS011;60894;42.544;1.516;2024-02-15T21:38:16;9.82;;;3.42;;
72771;SDS011;60894;42.544;1.516;2024-02-15T21:40:44;9.20;;;3.70;;
72771;SDS011;60894;42.544;1.516;2024-02-15T21:43:11;11.93;;;4.38;;
72771;SDS011;60894;42.544;1.516;2024-02-15T21:45:40;11.60;;;4.38;;
72771;SDS011;60894;42.544;1.516;2024-02-15T21:49:26;11.82;;;4.50;;
72771;SDS011;60894;42.544;1.516;2024-02-15T21:51:53;9.95;;;4.20;;
72771;SDS011;60894;42.544;1.516;2024-02-15T21:54:20;11.35;;;3.72;;
72771;SDS011;60894;42.544;1.516;2024-02-15T21:56:47;9.82;;;4.03;;
72771;SDS011;60894;42.544;1.516;2024-02-15T21:59:15;9.87;;;3.47;;
72771;SDS011;60894;42.544;1.516;2024-02-15T22:01:43;9.48;;;4.03;;
72771;SDS011;60894;42.544;1.516;2024-02-15T22:04:10;8.35;;;3.53;;
72771;SDS011;60894;42.544;1.516;2024-02-15T22:06:38;9.38;;;3.50;;
72771;SDS011;60894;42.544;1.516;2024-02-15T22:09:10;10.88;;;4.20;;
72771;SDS011;60894;42.544;1.516;2024-02-15T22:11:37;12.13;;;4.67;;
72771;SDS011;60894;42.544;1.516;2024-02-15T22:14:04;16.20;;;6.20;;
72771;SDS011;60894;42.544;1.516;2024-02-15T22:16:32;16.10;;;5.85;;
72771;SDS011;60894;42.544;1.516;2024-02-15T22:18:59;14.70;;;5.40;;
72771;SDS011;60894;42.544;1.516;2024-02-15T22:21:27;14.70;;;5.03;;
72771;SDS011;60894;42.544;1.516;2024-02-15T22:23:56;11.10;;;4.80;;
72771;SDS011;60894;42.544;1.516;2024-02-15T22:26:23;13.07;;;4.60;;
72771;SDS011;60894;42.544;1.516;2024-02-15T22:28:50;8.57;;;3.50;;
72771;SDS011;60894;42.544;1.516;2024-02-15T22:31:18;10.10;;;3.35;;
72771;SDS011;60894;42.544;1.516;2024-02-15T22:33:45;8.70;;;2.90;;
72771;SDS011;60894;42.544;1.516;2024-02-15T22:36:18;9.73;;;3.53;;
72771;SDS011;60894;42.544;1.516;2024-02-15T22:38:46;11.05;;;4.70;;
72771;SDS011;60894;42.544;1.516;2024-02-15T22:41:15;12.77;;;4.35;;
72771;SDS011;60894;42.544;1.516;2024-02-15T22:43:42;12.63;;;4.40;;
72771;SDS011;60894;42.544;1.516;2024-02-15T22:46:10;11.40;;;4.63;;
72771;SDS011;60894;42.544;1.516;2024-02-15T22:48:37;11.43;;;4.63;;
72771;SDS011;60894;42.544;1.516;2024-02-15T22:51:04;14.98;;;5.90;;
72771;SDS011;60894;42.544;1.516;2024-02-15T22:53:32;11.75;;;4.50;;
72771;SDS011;60894;42.544;1.516;2024-02-15T22:56:02;11.57;;;4.10;;
72771;SDS011;60894;42.544;1.516;2024-02-15T22:58:31;12.15;;;3.50;;
72771;SDS011;60894;42.544;1.516;2024-02-15T23:00:59;9.93;;;4.07;;
72771;SDS011;60894;42.544;1.516;2024-02-15T23:03:29;10.57;;;4.20;;
72771;SDS011;60894;42.544;1.516;2024-02-15T23:05:56;10.23;;;3.42;;
72771;SDS011;60894;42.544;1.516;2024-02-15T23:08:24;11.85;;;3.80;;
72771;SDS011;60894;42.544;1.516;2024-02-15T23:10:53;8.98;;;3.40;;
72771;SDS011;60894;42.544;1.516;2024-02-15T23:13:20;7.03;;;3.23;;
72771;SDS011;60894;42.544;1.516;2024-02-15T23:15:49;6.97;;;2.78;;
72771;SDS011;60894;42.544;1.516;2024-02-15T23:18:17;7.28;;;2.40;;
72771;SDS011;60894;42.544;1.516;2024-02-15T23:20:44;5.80;;;2.08;;
72771;SDS011;60894;42.544;1.516;2024-02-15T23:23:12;5.70;;;1.98;;
72771;SDS011;60894;42.544;1.516;2024-02-15T23:25:39;5.07;;;1.70;;
72771;SDS011;60894;42.544;1.516;2024-02-15T23:28:06;5.43;;;1.92;;
72771;SDS011;60894;42.544;1.516;2024-02-15T23:30:34;9.48;;;3.05;;
72771;SDS011;60894;42.544;1.516;2024-02-15T23:33:03;7.43;;;2.83;;
72771;SDS011;60894;42.544;1.516;2024-02-15T23:35:32;8.10;;;2.80;;
72771;SDS011;60894;42.544;1.516;2024-02-15T23:38:12;6.83;;;2.80;;
72771;SDS011;60894;42.544;1.516;2024-02-15T23:40:56;7.50;;;3.00;;
72771;SDS011;60894;42.544;1.516;2024-02-15T23:43:24;7.72;;;2.95;;
72771;SDS011;60894;42.544;1.516;2024-02-15T23:45:52;8.40;;;2.95;;
72771;SDS011;60894;42.544;1.516;2024-02-15T23:48:20;10.63;;;2.92;;
72771;SDS011;60894;42.544;1.516;2024-02-15T23:50:47;8.27;;;3.00;;
72771;SDS011;60894;42.544;1.516;2024-02-15T23:53:14;7.28;;;2.72;;
72771;SDS011;60894;42.544;1.516;2024-02-15T23:55:41;6.50;;;2.30;;
72771;SDS011;60894;42.544;1.516;2024-02-15T23:58:08;6.75;;;2.20;;
